^^
Datos históricos de la estación: Murcia-Puente Tocinos
Diario Informe para Julio 23, 2021 Unidades:  Métrico    Ingés   Ambas
Diario Semanal Mensual Anual
  Máxima: Mínima: Promedio:
Temperatura: 36.8 °C 23.2 °C 29.4 °C
Punto de rocio: 21.6 °C 13.5 °C 17.2 °C
Humedad: 79% 25.5% 51%
Velocidad viento: 19km/h 0km/h 8km/h
Racha viento: 30.6km/h - -
Viento- - SE
Presión: 1014.7 hPa 1007.5 hPa -
Precipitación: 0.0 mm    
 
 
Tabla de datos para Julio 23, 2021
Hora Temperatura Punto de rocio Presión Viento Velocidad viento Racha viento Humedad Intensidad lluvia(por hora) Nubes
00:04 25.9 °C 21.6 °C 1014.7 hPa NNO 3.9 km/h 8 km/h 77% 0.0 mm
00:09 25.9 °C 21.5 °C 1014.7 hPa NNO 3.9 km/h 8 km/h 77% 0.0 mm
00:14 25.8 °C 21.4 °C 1014.7 hPa NNO 3.8 km/h 8 km/h 77% 0.0 mm
00:19 25.8 °C 21.4 °C 1014.7 hPa NNO 3.5 km/h 7.6 km/h 77% 0.0 mm
00:24 25.8 °C 21.4 °C 1014.7 hPa NNO 3.2 km/h 8 km/h 77% 0.0 mm
00:29 25.7 °C 21.4 °C 1014.7 hPa North 3.6 km/h 7.4 km/h 77% 0.0 mm
00:34 25.7 °C 21.5 °C 1014.7 hPa NNO 3.9 km/h 5.8 km/h 77.4% 0.0 mm
00:39 25.7 °C 21.6 °C 1014.7 hPa NNO 3.9 km/h 7.6 km/h 78% 0.0 mm
00:44 25.6 °C 21.5 °C 1014.7 hPa North 3.9 km/h 8 km/h 78% 0.0 mm
00:49 25.6 °C 21.5 °C 1014.7 hPa NNO 3.9 km/h 8 km/h 78% 0.0 mm
00:54 25.6 °C 21.5 °C 1014.7 hPa NNO 3.9 km/h 8 km/h 78% 0.0 mm
00:59 25.5 °C 21.4 °C 1014.6 hPa NNO 3.9 km/h 8 km/h 78% 0.0 mm
01:04 25.4 °C 21.4 °C 1014.6 hPa NNO 3.9 km/h 8 km/h 78.2% 0.0 mm
01:09 25.4 °C 21.5 °C 1014.6 hPa North 3.5 km/h 4.7 km/h 79% 0.0 mm
01:14 25.4 °C 21.5 °C 1014.5 hPa NO 3.2 km/h 7.6 km/h 79% 0.0 mm
01:19 25.4 °C 21.5 °C 1014.5 hPa ONO 3.6 km/h 8.4 km/h 79% 0.0 mm
01:24 25.3 °C 21.4 °C 1014.6 hPa ONO 3.9 km/h 3.9 km/h 79% 0.0 mm
01:29 25.3 °C 21.4 °C 1014.6 hPa ONO 3.3 km/h 3.7 km/h 79% 0.0 mm
01:34 25.3 °C 21.4 °C 1014.6 hPa ONO 2.9 km/h 3.9 km/h 79% 0.0 mm
01:39 25.3 °C 21.4 °C 1014.6 hPa ONO 2.5 km/h 3.7 km/h 79% 0.0 mm
01:44 25.4 °C 21.5 °C 1014.4 hPa ONO 2.3 km/h 3.9 km/h 79% 0.0 mm
01:49 25.4 °C 21.5 °C 1014.4 hPa ONO 1 km/h 3.9 km/h 79% 0.0 mm
01:54 25.3 °C 21.4 °C 1014.4 hPa Calm   3.7 km/h 79% 0.0 mm
01:59 25.3 °C 21.4 °C 1014.3 hPa Calm   5 km/h 79% 0.0 mm
02:04 25.3 °C 21.2 °C 1014.3 hPa Calm   5.6 km/h 78.4% 0.0 mm
02:09 25.2 °C 21.1 °C 1014.3 hPa Calm   4.8 km/h 78% 0.0 mm
02:14 25.1 °C 21.2 °C 1014.3 hPa Calm     78.9% 0.0 mm
02:19 25.1 °C 20.9 °C 1014.3 hPa Calm     77.7% 0.0 mm
02:24 24.9 °C 20.1 °C 1014.3 hPa Calm   2.3 km/h 74.6% 0.0 mm
02:29 24.8 °C 19.6 °C 1014.2 hPa Calm   5.8 km/h 73.2% 0.0 mm
02:34 24.9 °C 20 °C 1014.2 hPa Calm   6.4 km/h 74.4% 0.0 mm
02:39 25 °C 20.4 °C 1014.2 hPa SSE 1.9 km/h 6.4 km/h 75.7% 0.0 mm
02:44 25.1 °C 20.6 °C 1014.1 hPa SSE 3.2 km/h 3.7 km/h 76.1% 0.0 mm
02:49 25.1 °C 20.8 °C 1014.1 hPa SSE 1.3 km/h 3.2 km/h 77% 0.0 mm
02:54 25.2 °C 20.8 °C 1014.1 hPa Calm   3.2 km/h 77% 0.0 mm
02:59 25.1 °C 20.8 °C 1013.9 hPa Calm   4.7 km/h 77% 0.0 mm
03:04 25.1 °C 20.8 °C 1013.9 hPa Calm   4.8 km/h 77% 0.0 mm
03:09 25 °C 20.7 °C 1013.9 hPa SSE 1.5 km/h 4.7 km/h 77% 0.0 mm
03:14 24.9 °C 20.6 °C 1013.8 hPa SSE 2.9 km/h 4.8 km/h 77% 0.0 mm
03:19 24.7 °C 20.2 °C 1013.8 hPa SSE 1.2 km/h 3.7 km/h 76% 0.0 mm
03:24 24.6 °C 19.8 °C 1013.8 hPa Calm   3.9 km/h 74.6% 0.0 mm
03:29 24.5 °C 19.6 °C 1013.8 hPa Calm   5.8 km/h 73.9% 0.0 mm
03:34 24.5 °C 19.3 °C 1013.8 hPa Calm   6.4 km/h 73% 0.0 mm
03:39 24.6 °C 19.4 °C 1013.8 hPa Sur 2.1 km/h 9.5 km/h 73% 0.0 mm
03:44 24.7 °C 19.3 °C 1013.7 hPa SSO 3.9 km/h 11.1 km/h 72.1% 0.0 mm
03:49 24.7 °C 19.2 °C 1013.7 hPa SSO 5.5 km/h 11.3 km/h 71.3% 0.0 mm
03:54 24.7 °C 18.9 °C 1013.7 hPa SSO 6.9 km/h 11.3 km/h 70.1% 0.0 mm
03:59 24.8 °C 18.7 °C 1013.6 hPa SSO 6.6 km/h 11.1 km/h 69% 0.0 mm
04:04 24.8 °C 18.6 °C 1013.6 hPa SSO 6.5 km/h 11.3 km/h 68.3% 0.0 mm
04:09 24.8 °C 18.5 °C 1013.6 hPa SSO 6.7 km/h 9.7 km/h 67.8% 0.0 mm
04:14 24.8 °C 18.3 °C 1013.4 hPa SSO 6.9 km/h 9.7 km/h 67% 0.0 mm
04:19 24.8 °C 18.3 °C 1013.4 hPa SSO 5.9 km/h 8 km/h 67% 0.0 mm
04:24 24.7 °C 18.2 °C 1013.4 hPa SO 5 km/h 8 km/h 67% 0.0 mm
04:29 24.7 °C 18.2 °C 1013.3 hPa SO 4.4 km/h 8 km/h 67% 0.0 mm
04:34 24.7 °C 18.4 °C 1013.3 hPa SO 3.9 km/h 7.4 km/h 68% 0.0 mm
04:39 24.7 °C 18.4 °C 1013.3 hPa SO 3.5 km/h 8 km/h 68% 0.0 mm
04:44 24.7 °C 18.4 °C 1013.0 hPa SO 3.2 km/h 5.6 km/h 68% 0.0 mm
04:49 24.7 °C 18.4 °C 1013.0 hPa SO 2.7 km/h 5.8 km/h 68% 0.0 mm
04:54 24.7 °C 18.2 °C 1013.0 hPa SO 2.2 km/h 6.4 km/h 67% 0.0 mm
04:59 24.6 °C 17.9 °C 1012.9 hPa SSE 2.2 km/h 5.6 km/h 66.3% 0.0 mm
05:04 24.6 °C 17.8 °C 1012.9 hPa Sur 2.2 km/h 7.4 km/h 66% 0.0 mm
05:09 24.5 °C 17.7 °C 1013.2 hPa SSO 3.1 km/h 8 km/h 66% 0.0 mm
05:14 24.5 °C 17.9 °C 1013.2 hPa OSO 3.9 km/h 8 km/h 67% 0.0 mm
05:19 24.5 °C 18 °C 1013.2 hPa SO 4.3 km/h 8 km/h 67.1% 0.0 mm
05:24 24.5 °C 18.1 °C 1013.2 hPa SO 4.7 km/h 8 km/h 67.5% 0.0 mm
05:29 24.5 °C 17.9 °C 1013.0 hPa SSO 4.2 km/h 8 km/h 66.7% 0.0 mm
05:34 24.4 °C 17.6 °C 1013.0 hPa SO 3.9 km/h 8 km/h 66% 0.0 mm
05:39 24.4 °C 17.6 °C 1013.0 hPa SO 3.5 km/h 6.4 km/h 65.7% 0.0 mm
05:44 24.4 °C 17.4 °C 1012.9 hPa SSO 3.2 km/h 7.4 km/h 65% 0.0 mm
05:49 24.4 °C 17.4 °C 1012.9 hPa SSO 3.2 km/h 8 km/h 65.1% 0.0 mm
05:54 24.4 °C 17.6 °C 1012.9 hPa SE 3.2 km/h 5.8 km/h 66% 0.0 mm
05:59 24.3 °C 17.5 °C 1012.7 hPa SE 3 km/h 7.4 km/h 66% 0.0 mm
06:04 24.2 °C 17.5 °C 1012.7 hPa ESE 2.9 km/h 8 km/h 66.3% 0.0 mm
06:09 24.1 °C 17.4 °C 1012.7 hPa ESE 3.1 km/h 7.4 km/h 66.6% 0.0 mm
06:14 23.8 °C 17.3 °C 1012.7 hPa SE 3.2 km/h 8 km/h 67% 0.0 mm
06:19 23.6 °C 17.2 °C 1012.7 hPa SE 3.6 km/h 8 km/h 67.1% 0.0 mm
06:24 23.4 °C 17.2 °C 1012.7 hPa ESE 3.9 km/h 7.4 km/h 68% 0.0 mm
06:29 23.3 °C 17.1 °C 1012.5 hPa ESE 3.9 km/h 8 km/h 68% 0.0 mm
06:34 23.3 °C 17.1 °C 1012.5 hPa SSE 3.9 km/h 8.7 km/h 68% 0.0 mm
06:39 23.2 °C 17 °C 1013.0 hPa SSO 4.5 km/h 10 km/h 68% 0.0 mm
06:44 23.2 °C 16.9 °C 1013.0 hPa SO 5 km/h 11.1 km/h 68% 0.0 mm
06:49 23.3 °C 16.9 °C 1013.0 hPa SO 5.4 km/h 11.1 km/h 67.3% 0.0 mm
06:54 23.4 °C 16.6 °C 1013.3 hPa SSO 5.8 km/h 11.3 km/h 65.9% 0.0 mm
06:59 23.6 °C 16.5 °C 1013.3 hPa Sur 5.8 km/h 9.7 km/h 64.5% 0.0 mm
07:04 23.7 °C 16.4 °C 1013.3 hPa SSE 5.8 km/h 8.4 km/h 63.7% 0.0 mm
07:09 23.7 °C 16.2 °C 1013.3 hPa SSE 5.3 km/h 8.4 km/h 62.9% 0.0 mm
07:14 23.7 °C 16.1 °C 1013.0 hPa Sur 5 km/h 9.5 km/h 62.7% 0.0 mm
07:19 23.7 °C 16.3 °C 1013.0 hPa SE 5.5 km/h 9.7 km/h 63.4% 0.0 mm
07:24 23.5 °C 16.3 °C 1013.0 hPa SSE 5.8 km/h 10 km/h 64% 0.0 mm
07:29 23.3 °C 16.1 °C 1013.0 hPa SSE 6.1 km/h 8.7 km/h 64% 0.0 mm
07:34 23.2 °C 16 °C 1013.0 hPa Sur 6.4 km/h 9.3 km/h 64% 0.0 mm
07:39 23.2 °C 16 °C 1013.0 hPa Sur 6.1 km/h 9.7 km/h 64% 0.0 mm
07:44 23.3 °C 16 °C 1012.9 hPa SSE 5.8 km/h 9.5 km/h 63.7% 0.0 mm
07:49 23.4 °C 16 °C 1012.9 hPa SSO 5.8 km/h 9.7 km/h 63% 0.0 mm
07:54 23.6 °C 16.2 °C 1012.9 hPa OSO 5.8 km/h 9.7 km/h 63% 0.0 mm
07:59 23.8 °C 16.3 °C 1012.8 hPa SO 4.7 km/h 8 km/h 63% 0.0 mm
08:04 23.8 °C 16.2 °C 1012.8 hPa Oeste 3.9 km/h 10 km/h 62.4% 0.0 mm
08:09 23.8 °C 16.1 °C 1012.8 hPa OSO 4.5 km/h 10 km/h 62% 0.0 mm
08:14 23.8 °C 15.9 °C 1012.8 hPa OSO 5 km/h 9.7 km/h 61.4% 0.0 mm
08:19 23.9 °C 15.9 °C 1012.8 hPa OSO 6.1 km/h 9.7 km/h 61% 0.0 mm
08:24 23.9 °C 16 °C 1012.8 hPa OSO 6.9 km/h 9.7 km/h 61% 0.0 mm
08:29 24.1 °C 15.8 °C 1012.8 hPa SSO 5.8 km/h 9.7 km/h 60% 0.0 mm
08:34 24.2 °C 15.7 °C 1012.8 hPa SSO 5 km/h 5.8 km/h 59% 0.0 mm
08:39 24.3 °C 15.8 °C 1012.8 hPa OSO 4 km/h 7.6 km/h 58.8% 0.0 mm
08:44 24.5 °C 15.7 °C 1012.7 hPa SO 3.2 km/h 8 km/h 57.9% 0.0 mm
08:49 24.7 °C 15.6 °C 1012.7 hPa SSO 3.6 km/h 7.4 km/h 57.1% 0.0 mm
08:54 24.8 °C 15.5 °C 1012.7 hPa SSO 3.9 km/h 9.3 km/h 56% 0.0 mm
08:59 24.9 °C 15.5 °C 1012.7 hPa Sur 4.4 km/h 9.7 km/h 56% 0.0 mm
09:04 25.1 °C 15.8 °C 1012.7 hPa SSE 4.6 km/h 8 km/h 56.2% 0.0 mm
09:09 25.2 °C 15.8 °C 1012.7 hPa SSE 4.6 km/h 10 km/h 56% 0.0 mm
09:14 25.3 °C 15.9 °C 1012.7 hPa SSE 4.7 km/h 9.7 km/h 55.9% 0.0 mm
09:19 25.4 °C 16.1 °C 1012.7 hPa SSE 5.3 km/h 9.7 km/h 56.2% 0.0 mm
09:24 25.4 °C 16.2 °C 1012.9 hPa Sur 5.8 km/h 10 km/h 56.7% 0.0 mm
09:29 25.5 °C 16.2 °C 1012.9 hPa SSO 6.1 km/h 9.3 km/h 56.5% 0.0 mm
09:34 25.7 °C 16 °C 1012.9 hPa SO 6.5 km/h 11.9 km/h 55.2% 0.0 mm
09:39 25.9 °C 15.8 °C 1012.9 hPa SSO 6.7 km/h 11.9 km/h 53.7% 0.0 mm
09:44 26.2 °C 15.5 °C 1012.8 hPa SSO 6.9 km/h 11.3 km/h 51.9% 0.0 mm
09:49 26.6 °C 15.9 °C 1012.8 hPa SSE 4.9 km/h 7.6 km/h 52.1% 0.0 mm
09:54 26.8 °C 15.7 °C 1012.8 hPa ESE 3.2 km/h 11.1 km/h 50.7% 0.0 mm
09:59 26.7 °C 15.9 °C 1012.2 hPa SE 5.9 km/h 14.8 km/h 51.8% 0.0 mm
10:04 26.6 °C 15.8 °C 1012.2 hPa OSO 7.6 km/h 16.7 km/h 51.6% 0.0 mm
10:09 26.6 °C 15.6 °C 1012.8 hPa Oeste 7.6 km/h 16.1 km/h 51% 0.0 mm
10:14 26.7 °C 15.4 °C 1012.8 hPa OSO 7.6 km/h 9.7 km/h 49.8% 0.0 mm
10:19 26.7 °C 15.1 °C 1012.8 hPa SO 6.5 km/h 11.1 km/h 49% 0.0 mm
10:24 26.8 °C 15.2 °C 1012.8 hPa Sur 5.8 km/h 11.3 km/h 49% 0.0 mm
10:29 26.9 °C 15.3 °C 1012.5 hPa SE 5.3 km/h 11.3 km/h 49% 0.0 mm
10:34 27.1 °C 15.5 °C 1012.5 hPa SE 5 km/h 13 km/h 49.4% 0.0 mm
10:39 27.2 °C 15.5 °C 1012.5 hPa SSE 5.4 km/h 12.9 km/h 49% 0.0 mm
10:44 27.3 °C 15.7 °C 1012.5 hPa SSO 5.8 km/h 9.7 km/h 49% 0.0 mm
10:49 27.5 °C 15.2 °C 1012.5 hPa SSO 5.3 km/h 9.7 km/h 47.1% 0.0 mm
10:54 27.7 °C 14.7 °C 1012.5 hPa SO 5 km/h 8 km/h 45.1% 0.0 mm
10:59 27.9 °C 14.9 °C 1012.4 hPa SO 4.3 km/h 8.4 km/h 45.1% 0.0 mm
11:04 28.3 °C 14.7 °C 1012.4 hPa ONO 3.9 km/h 8 km/h 43.6% 0.0 mm
11:09 28.6 °C 14.4 °C 1012.4 hPa North 3.5 km/h 8 km/h 42% 0.0 mm
11:14 29 °C 14.4 °C 1012.3 hPa NNO 3.2 km/h 8.4 km/h 40.8% 0.0 mm
11:19 29.4 °C 14.4 °C 1012.3 hPa North 3.2 km/h 8 km/h 40% 0.0 mm
11:24 29.7 °C 14.1 °C 1012.3 hPa NE 3.2 km/h 11.9 km/h 38.6% 0.0 mm
11:29 29.9 °C 14.4 °C 1012.0 hPa NE 4.6 km/h 11.1 km/h 38.8% 0.0 mm
11:34 30.1 °C 14.3 °C 1012.0 hPa NE 5.8 km/h 12.2 km/h 38.2% 0.0 mm
11:39 30.2 °C 13.7 °C 1012.0 hPa NE 6.5 km/h 14.8 km/h 36.5% 0.0 mm
11:44 30.3 °C 13.9 °C 1011.9 hPa NNE 6.9 km/h 14.5 km/h 36.9% 0.0 mm
11:49 30.5 °C 13.8 °C 1011.9 hPa NE 7.7 km/h 17.2 km/h 36.3% 0.0 mm
11:54 30.6 °C 13.9 °C 1011.9 hPa NNE 8.4 km/h 17.7 km/h 36.2% 0.0 mm
11:59 30.8 °C 14.1 °C 1011.8 hPa NNE 8.6 km/h 16.1 km/h 36% 0.0 mm
12:04 31 °C 14.4 °C 1011.8 hPa NE 8.7 km/h 14.8 km/h 36.4% 0.0 mm
12:09 31.2 °C 14.4 °C 1011.9 hPa NNE 8.7 km/h 14.8 km/h 36% 0.0 mm
12:14 31.4 °C 14.6 °C 1011.9 hPa NNE 8.7 km/h 14.5 km/h 36% 0.0 mm
12:19 31.7 °C 14.6 °C 1011.9 hPa NNE 8.5 km/h 18.5 km/h 35.6% 0.0 mm
12:24 31.8 °C 14.8 °C 1011.9 hPa NE 8.4 km/h 19.3 km/h 35.9% 0.0 mm
12:29 32 °C 14.9 °C 1011.5 hPa NNE 9.3 km/h 20.4 km/h 35.5% 0.0 mm
12:34 32.2 °C 15.2 °C 1011.5 hPa NNE 10 km/h 20.9 km/h 35.8% 0.0 mm
12:39 32.5 °C 15.2 °C 1011.5 hPa NE 10.6 km/h 17.2 km/h 35.2% 0.0 mm
12:44 32.7 °C 15.2 °C 1011.3 hPa NNE 11.1 km/h 22.2 km/h 35.1% 0.0 mm
12:49 32.7 °C 15.5 °C 1011.3 hPa NNE 12.2 km/h 22.5 km/h 35.6% 0.0 mm
12:54 32.8 °C 15.4 °C 1011.3 hPa NNE 13 km/h 22.5 km/h 35.2% 0.0 mm
12:59 33 °C 15 °C 1011.1 hPa NNE 12.5 km/h 19 km/h 34% 0.0 mm
13:04 33.2 °C 15 °C 1011.1 hPa NNE 12.2 km/h 20.9 km/h 33.7% 0.0 mm
13:09 33.3 °C 14.8 °C 1011.1 hPa NNE 12.1 km/h 20.4 km/h 32.8% 0.0 mm
13:14 33.6 °C 14.7 °C 1010.9 hPa NE 11.9 km/h 20.9 km/h 32.2% 0.0 mm
13:19 33.8 °C 14.8 °C 1010.9 hPa NNE 11.5 km/h 22.5 km/h 31.9% 0.0 mm
13:24 34.1 °C 14.8 °C 1010.9 hPa NNE 11.1 km/h 22.5 km/h 31.4% 0.0 mm
13:29 34.3 °C 14.6 °C 1010.6 hPa NNE 11.1 km/h 18.5 km/h 30.7% 0.0 mm
13:34 34.4 °C 14.7 °C 1010.6 hPa NNE 11.1 km/h 21.7 km/h 30.7% 0.0 mm
13:39 34.5 °C 14.9 °C 1010.6 hPa NNE 11.1 km/h 22.5 km/h 31% 0.0 mm
13:44 34.6 °C 14.8 °C 1010.5 hPa NNE 11.1 km/h 19.8 km/h 30.6% 0.0 mm
13:49 34.8 °C 14.7 °C 1010.5 hPa NE 11.1 km/h 22.5 km/h 30% 0.0 mm
13:54 35 °C 14.8 °C 1010.5 hPa NNE 11.1 km/h 25.6 km/h 29.9% 0.0 mm
13:59 35.2 °C 14.9 °C 1010.5 hPa NNE 12.3 km/h 25.9 km/h 29.9% 0.0 mm
14:04 35.3 °C 15.1 °C 1010.5 hPa NNE 13 km/h 25.7 km/h 30% 0.0 mm
14:09 35.4 °C 15.3 °C 1010.5 hPa NE 12.4 km/h 21.7 km/h 30.1% 0.0 mm
14:14 35.6 °C 15.3 °C 1010.4 hPa NE 11.9 km/h 24.5 km/h 30% 0.0 mm
14:19 35.6 °C 15.4 °C 1010.4 hPa NE 13.1 km/h 24.1 km/h 30.2% 0.0 mm
14:24 35.8 °C 15.5 °C 1010.4 hPa NE 14 km/h 24.1 km/h 30.1% 0.0 mm
14:29 36.1 °C 14.2 °C 1010.1 hPa ESE 12.8 km/h 24.1 km/h 27.1% 0.0 mm
14:34 36.4 °C 13.7 °C 1010.1 hPa ESE 11.9 km/h 24.1 km/h 25.8% 0.0 mm
14:39 36.6 °C 14 °C 1010.1 hPa ENE 10.9 km/h 20.9 km/h 26.1% 0.0 mm
14:44 36.7 °C 15.1 °C 1010.0 hPa ENE 10 km/h 18.5 km/h 27.7% 0.0 mm
14:49 36.7 °C 15.7 °C 1010.0 hPa ENE 9.7 km/h 19.3 km/h 29% 0.0 mm
14:54 36.4 °C 13.7 °C 1010.0 hPa Este 9.5 km/h 19.8 km/h 25.8% 0.0 mm
14:59 36.3 °C 13.5 °C 1010.0 hPa ESE 11.3 km/h 20.9 km/h 25.5% 0.0 mm
15:04 36.4 °C 13.6 °C 1010.0 hPa ESE 13 km/h 20.9 km/h 25.6% 0.0 mm
15:09 36.3 °C 13.8 °C 1010.0 hPa ESE 12.4 km/h 25.9 km/h 26.2% 0.0 mm
15:14 36 °C 14.2 °C 1009.7 hPa ESE 11.9 km/h 25.9 km/h 27.1% 0.0 mm
15:19 36 °C 14.5 °C 1009.7 hPa ESE 14.4 km/h 25.9 km/h 27.9% 0.0 mm
15:24 36.1 °C 14.7 °C 1009.7 hPa SE 16.1 km/h 22.2 km/h 28% 0.0 mm
15:29 36.3 °C 14.5 °C 1009.6 hPa ESE 14.8 km/h 25.9 km/h 27.4% 0.0 mm
15:34 36.1 °C 14.7 °C 1009.6 hPa ESE 13.7 km/h 25.7 km/h 28% 0.0 mm
15:39 35.9 °C 14.6 °C 1009.6 hPa ESE 15 km/h 25.9 km/h 28.1% 0.0 mm
15:44 35.8 °C 15.1 °C 1009.4 hPa ESE 16.1 km/h 25.9 km/h 29.1% 0.0 mm
15:49 35.9 °C 14.8 °C 1009.4 hPa ESE 15.8 km/h 27.8 km/h 28.5% 0.0 mm
15:54 36.2 °C 14.9 °C 1009.4 hPa ESE 15.6 km/h 27.4 km/h 28.4% 0.0 mm
15:59 36.2 °C 15.6 °C 1009.2 hPa SE 14.6 km/h 27 km/h 29.4% 0.0 mm
16:04 36.1 °C 16 °C 1009.2 hPa ESE 14 km/h 27.8 km/h 30.5% 0.0 mm
16:09 36.1 °C 16.2 °C 1009.2 hPa ESE 13.8 km/h 26.2 km/h 30.8% 0.0 mm
16:14 36.1 °C 16.5 °C 1009.1 hPa ESE 13.7 km/h 25.7 km/h 31.5% 0.0 mm
16:19 36.1 °C 16.7 °C 1009.1 hPa ESE 14.3 km/h 24.1 km/h 31.9% 0.0 mm
16:24 36.1 °C 16.6 °C 1009.1 hPa ESE 14.8 km/h 27.8 km/h 31.7% 0.0 mm
16:29 35.9 °C 16.5 °C 1008.9 hPa ESE 14.8 km/h 27.4 km/h 31.9% 0.0 mm
16:34 36 °C 16.7 °C 1008.9 hPa ESE 14.8 km/h 24.5 km/h 31.9% 0.0 mm
16:39 36.2 °C 17 °C 1008.9 hPa ESE 15.3 km/h 28.2 km/h 32.3% 0.0 mm
16:44 36.2 °C 17.1 °C 1008.7 hPa ESE 15.6 km/h 27.8 km/h 32.4% 0.0 mm
16:49 36.3 °C 16.9 °C 1008.7 hPa ESE 14.4 km/h 28.2 km/h 32% 0.0 mm
16:54 36.2 °C 16.9 °C 1008.7 hPa Este 13.7 km/h 27.4 km/h 32% 0.0 mm
16:59 36.3 °C 16.9 °C 1008.6 hPa ESE 13.7 km/h 26.2 km/h 31.9% 0.0 mm
17:04 36.1 °C 16.6 °C 1008.6 hPa ESE 13.7 km/h 25.7 km/h 31.6% 0.0 mm
17:09 36.3 °C 16.6 °C 1008.6 hPa ESE 13.9 km/h 20.9 km/h 31.4% 0.0 mm
17:14 36.4 °C 16.6 °C 1008.5 hPa ESE 14 km/h 23.3 km/h 31% 0.0 mm
17:19 36.3 °C 16.4 °C 1008.5 hPa Este 13.8 km/h 24.1 km/h 31% 0.0 mm
17:24 36.2 °C 16.9 °C 1008.5 hPa ESE 13.7 km/h 22.5 km/h 31.9% 0.0 mm
17:29 36.3 °C 16.7 °C 1008.3 hPa ENE 12.2 km/h 19.3 km/h 31.5% 0.0 mm
17:34 36.4 °C 16.5 °C 1008.3 hPa ESE 11.1 km/h 19.3 km/h 31% 0.0 mm
17:39 36.5 °C 16.3 °C 1008.3 hPa Este 10.5 km/h 19.3 km/h 30.2% 0.0 mm
17:44 36.8 °C 16 °C 1008.2 hPa NE 10 km/h 16.7 km/h 29.4% 0.0 mm
17:49 36.8 °C 16.2 °C 1008.2 hPa NE 8.6 km/h 22.5 km/h 29.7% 0.0 mm
17:54 36.5 °C 15.9 °C 1008.2 hPa Este 7.6 km/h 18.5 km/h 29.6% 0.0 mm
17:59 36.6 °C 16.3 °C 1008.0 hPa NE 9.1 km/h 19.3 km/h 30.2% 0.0 mm
18:04 36.6 °C 15.8 °C 1008.0 hPa NE 10.3 km/h 19.3 km/h 29.3% 0.0 mm
18:09 36.7 °C 16.1 °C 1008.0 hPa ENE 9.2 km/h 19.3 km/h 29.8% 0.0 mm
18:14 36.4 °C 16.1 °C 1007.8 hPa ENE 8.4 km/h 19.3 km/h 30.1% 0.0 mm
18:19 36.1 °C 17 °C 1007.8 hPa NE 9 km/h 18.5 km/h 32.3% 0.0 mm
18:24 35.8 °C 16.7 °C 1007.8 hPa NE 9.5 km/h 14.5 km/h 32.2% 0.0 mm
18:29 36 °C 15.9 °C 1007.7 hPa SSE 8.1 km/h 16.7 km/h 30.4% 0.0 mm
18:34 36.4 °C 15.8 °C 1007.7 hPa ENE 6.9 km/h 16.7 km/h 29.6% 0.0 mm
18:39 36.6 °C 16.5 °C 1007.7 hPa ENE 7.8 km/h 16.7 km/h 30.6% 0.0 mm
18:44 36.4 °C 16 °C 1007.5 hPa ENE 8.4 km/h 19 km/h 30% 0.0 mm
18:49 36.2 °C 16.9 °C 1007.5 hPa NNE 9.3 km/h 19.3 km/h 32% 0.0 mm
18:54 35.9 °C 17.4 °C 1007.6 hPa NNE 10 km/h 20.4 km/h 33.7% 0.0 mm
18:59 35.3 °C 17.5 °C 1007.6 hPa NE 10 km/h 20.9 km/h 35% 0.0 mm
19:04 34.8 °C 17.5 °C 1007.6 hPa NNE 10 km/h 21.7 km/h 35.9% 0.0 mm
19:09 34.7 °C 17.4 °C 1007.6 hPa NNE 10.2 km/h 20.9 km/h 36% 0.0 mm
19:14 34.6 °C 17.2 °C 1007.5 hPa NNE 10.3 km/h 28.2 km/h 35.6% 0.0 mm
19:19 34.3 °C 17 °C 1007.5 hPa NNE 12.3 km/h 27.4 km/h 35.7% 0.0 mm
19:24 34.2 °C 17 °C 1007.7 hPa NE 14 km/h 25.1 km/h 36% 0.0 mm
19:29 34.1 °C 16.9 °C 1007.7 hPa NNE 13.5 km/h 26.2 km/h 36% 0.0 mm
19:34 33.8 °C 16.8 °C 1007.7 hPa NE 13 km/h 25.7 km/h 36.3% 0.0 mm
19:39 33.7 °C 17.2 °C 1007.7 hPa NNE 13.6 km/h 30.6 km/h 37.7% 0.0 mm
19:44 33.3 °C 17.8 °C 1007.6 hPa NNE 14 km/h 30.6 km/h 39.9% 0.0 mm
19:49 33 °C 17.5 °C 1007.6 hPa NNE 16.3 km/h 30.6 km/h 39.8% 0.0 mm
19:54 32.8 °C 17.4 °C 1007.7 hPa NNE 18 km/h 29 km/h 39.9% 0.0 mm
19:59 32.7 °C 17.5 °C 1007.7 hPa NNE 18.6 km/h 27.8 km/h 40.7% 0.0 mm
20:04 32.5 °C 17.9 °C 1007.7 hPa NNE 19 km/h 25.9 km/h 41.9% 0.0 mm
20:09 32.3 °C 18.2 °C 1007.7 hPa NNE 17.4 km/h 29.6 km/h 43.1% 0.0 mm
20:14 32.2 °C 18.4 °C 1007.5 hPa NE 16.1 km/h 29.6 km/h 44.3% 0.0 mm
20:19 31.9 °C 18.3 °C 1007.5 hPa NNE 16.3 km/h 27.4 km/h 44.6% 0.0 mm
20:24 31.8 °C 18.2 °C 1007.5 hPa NNE 16.4 km/h 27.4 km/h 44.2% 0.0 mm
20:29 31.7 °C 17.5 °C 1007.5 hPa NE 15.9 km/h 27.8 km/h 42.7% 0.0 mm
20:34 31.6 °C 18.5 °C 1007.5 hPa NNE 15.6 km/h 27.4 km/h 45.7% 0.0 mm
20:39 31.3 °C 19.2 °C 1007.7 hPa NNE 16.1 km/h 28.2 km/h 48.6% 0.0 mm
20:44 31.1 °C 19.1 °C 1007.7 hPa NE 16.4 km/h 28.2 km/h 49% 0.0 mm
20:49 30.9 °C 19.3 °C 1007.7 hPa NE 16.4 km/h 24.1 km/h 50% 0.0 mm
20:54 30.8 °C 19.2 °C 1007.7 hPa NE 16.4 km/h 25.9 km/h 50% 0.0 mm
20:59 30.8 °C 19.1 °C 1007.5 hPa NNE 16.2 km/h 25.7 km/h 49.8% 0.0 mm
21:04 30.7 °C 19.1 °C 1007.5 hPa NE 16.1 km/h 25.6 km/h 50% 0.0 mm
21:09 30.6 °C 19.4 °C 1007.8 hPa NE 15.3 km/h 25.9 km/h 51.1% 0.0 mm
21:14 30.4 °C 19.7 °C 1007.8 hPa NE 14.8 km/h 24.1 km/h 52.9% 0.0 mm
21:19 30.2 °C 19.9 °C 1007.8 hPa NE 14.1 km/h 25.9 km/h 54% 0.0 mm
21:24 30.1 °C 19.6 °C 1007.8 hPa NE 13.7 km/h 29.6 km/h 53.5% 0.0 mm
21:29 30 °C 19.1 °C 1007.7 hPa NE 15.1 km/h 29 km/h 52.3% 0.0 mm
21:34 30 °C 18.7 °C 1007.7 hPa NE 16.1 km/h 14.8 km/h 50.8% 0.0 mm
21:39 30 °C 18.4 °C 1007.9 hPa NE 12.5 km/h 15.6 km/h 49.9% 0.0 mm
21:44 30 °C 18.2 °C 1007.9 hPa NE 9.5 km/h 16.1 km/h 49.3% 0.0 mm
21:49 29.9 °C 18.3 °C 1007.9 hPa NNE 10 km/h 17.2 km/h 50% 0.0 mm
21:54 29.8 °C 18.7 °C 1008.1 hPa NNE 10.3 km/h 18 km/h 51.4% 0.0 mm
21:59 29.6 °C 18.6 °C 1008.1 hPa NE 10.3 km/h 19.3 km/h 51.6% 0.0 mm
22:04 29.6 °C 18.3 °C 1008.1 hPa NE 10.3 km/h 19.3 km/h 50.8% 0.0 mm
22:09 29.7 °C 18.1 °C 1008.2 hPa NE 9.2 km/h 16.7 km/h 49.7% 0.0 mm
22:14 29.8 °C 17.9 °C 1008.2 hPa NE 8.4 km/h 16.1 km/h 48.9% 0.0 mm
22:19 29.8 °C 17.9 °C 1008.2 hPa NE 8.5 km/h 13 km/h 48.7% 0.0 mm
22:24 29.8 °C 17.6 °C 1008.6 hPa NE 8.7 km/h 13 km/h 48% 0.0 mm
22:29 29.9 °C 17.6 °C 1008.6 hPa NE 8 km/h 13 km/h 47.7% 0.0 mm
22:34 29.8 °C 17.3 °C 1008.6 hPa NE 7.6 km/h 13 km/h 47% 0.0 mm
22:39 29.8 °C 17.3 °C 1008.6 hPa ENE 8.2 km/h 14.8 km/h 47% 0.0 mm
22:44 29.9 °C 17.4 °C 1008.6 hPa NE 8.7 km/h 13.7 km/h 47% 0.0 mm
22:49 29.8 °C 17.3 °C 1008.6 hPa NE 7.5 km/h 14.5 km/h 47% 0.0 mm
22:54 29.7 °C 17.2 °C 1009.0 hPa NE 6.5 km/h 13.7 km/h 47% 0.0 mm
22:59 29.6 °C 17.3 °C 1009.0 hPa NE 7.8 km/h 14.5 km/h 47.6% 0.0 mm
23:04 29.4 °C 17.2 °C 1009.0 hPa NE 8.7 km/h 13 km/h 48% 0.0 mm
23:09 29.3 °C 17.4 °C 1009.1 hPa NNE 8.5 km/h 12.9 km/h 48.5% 0.0 mm
23:14 29.2 °C 17.4 °C 1009.1 hPa NE 8.4 km/h 12.2 km/h 48.9% 0.0 mm
23:19 29.1 °C 17.3 °C 1009.1 hPa NE 8.4 km/h 13.7 km/h 49% 0.0 mm
23:24 28.9 °C 17.4 °C 1009.1 hPa NE 8.4 km/h 13 km/h 49.8% 0.0 mm
23:29 28.9 °C 17.4 °C 1009.0 hPa NE 8.4 km/h 16.7 km/h 50% 0.0 mm
23:34 28.9 °C 17.4 °C 1009.0 hPa NE 8.4 km/h 16.1 km/h 50% 0.0 mm
23:39 28.8 °C 17.5 °C 1009.0 hPa NNE 7.9 km/h 13 km/h 50.4% 0.0 mm
23:44 28.6 °C 17.7 °C 1008.9 hPa NNE 7.6 km/h 14.8 km/h 51.8% 0.0 mm
23:49 28.2 °C 17.6 °C 1008.9 hPa NNE 7.6 km/h 13 km/h 52.4% 0.0 mm
23:54 28.1 °C 17.6 °C 1008.9 hPa NNE 7.6 km/h 11.9 km/h 53% 0.0 mm
23:59 27.9 °C 17.4 °C 1008.9 hPa NNE 7.6 km/h 11.9 km/h 53% 0.0 mm
Murcia-Puente Tocinos, España
Compliments of Weather Underground - 3 mb

La estación de MeteoMurcia.com, publica sus datos en los siguientes proyectos:

Weather Underground PWS IMURCIAP2 Meteoclimatic www.awekas.at

W3Counter
Web Analytics